createdAt,value
2018-09-03T00:01:33.292Z,5.87
2018-09-03T00:04:04.357Z,5.92
2018-09-03T00:06:35.424Z,6.37
2018-09-03T00:09:10.209Z,6.97
2018-09-03T00:11:41.285Z,4.58
2018-09-03T00:14:12.365Z,5.95
2018-09-03T00:16:43.339Z,6.55
2018-09-03T00:19:14.368Z,5.72
2018-09-03T00:21:45.374Z,8.25
2018-09-03T00:27:00.467Z,7.27
2018-09-03T00:29:31.444Z,7.55
2018-09-03T00:32:07.482Z,8.40
2018-09-03T00:34:43.654Z,8.40
2018-09-03T00:37:19.625Z,8.45
2018-09-03T00:39:55.542Z,8.20
2018-09-03T00:42:31.612Z,7.40
2018-09-03T00:45:07.708Z,8.80
2018-09-03T00:47:38.598Z,8.88
2018-09-03T00:50:09.487Z,7.42
2018-09-03T00:52:40.415Z,7.97
2018-09-03T00:55:11.524Z,7.55
2018-09-03T00:57:42.449Z,8.35
2018-09-03T01:00:13.443Z,8.45
2018-09-03T01:02:44.421Z,8.58
2018-09-03T01:05:15.474Z,9.80
2018-09-03T01:07:46.435Z,8.88
2018-09-03T01:10:17.447Z,7.42
2018-09-03T01:12:48.412Z,9.35
2018-09-03T01:15:19.465Z,9.93
2018-09-03T01:17:50.409Z,8.40
2018-09-03T01:20:21.420Z,8.40
2018-09-03T01:22:52.426Z,9.10
2018-09-03T01:25:23.472Z,8.55
2018-09-03T01:27:54.381Z,11.30
2018-09-03T01:30:25.452Z,8.98
2018-09-03T01:32:56.423Z,9.28
2018-09-03T01:35:27.438Z,6.95
2018-09-03T01:37:58.502Z,7.97
2018-09-03T01:40:29.478Z,8.80
2018-09-03T01:43:00.437Z,9.45
2018-09-03T01:45:31.434Z,8.58
2018-09-03T01:48:02.392Z,8.80
2018-09-03T01:50:33.395Z,11.25
2018-09-03T01:53:04.368Z,9.85
2018-09-03T01:55:35.361Z,11.48
2018-09-03T01:58:06.385Z,11.00
2018-09-03T02:00:37.412Z,7.40
2018-09-03T02:03:08.457Z,10.82
2018-09-03T02:05:39.448Z,11.38
2018-09-03T02:08:10.381Z,10.88
2018-09-03T02:10:41.405Z,11.25
2018-09-03T02:13:12.412Z,11.53
2018-09-03T02:15:43.482Z,10.80
2018-09-03T02:18:14.411Z,10.95
2018-09-03T02:20:45.414Z,10.72
2018-09-03T02:23:16.388Z,10.18
2018-09-03T02:25:47.445Z,10.40
2018-09-03T02:28:18.396Z,10.78
2018-09-03T02:30:49.443Z,10.72
2018-09-03T02:33:20.472Z,9.38
2018-09-03T02:35:51.482Z,10.10
2018-09-03T02:38:22.424Z,11.68
2018-09-03T02:40:53.461Z,12.53
2018-09-03T02:43:24.393Z,11.57
2018-09-03T02:45:55.481Z,11.12
2018-09-03T02:48:26.453Z,13.03
2018-09-03T02:50:57.447Z,10.18
2018-09-03T02:53:28.457Z,12.28
2018-09-03T02:55:59.491Z,9.55
2018-09-03T02:58:30.390Z,7.78
2018-09-03T03:01:01.472Z,10.95
2018-09-03T03:03:32.421Z,12.37
2018-09-03T03:06:03.425Z,12.78
2018-09-03T03:08:34.410Z,11.53
2018-09-03T03:11:46.486Z,10.63
2018-09-03T03:14:17.471Z,11.65
2018-09-03T03:16:48.443Z,13.00
2018-09-03T03:19:19.413Z,11.73
2018-09-03T03:21:50.432Z,13.70
2018-09-03T03:24:21.474Z,12.85
2018-09-03T03:26:52.471Z,12.20
2018-09-03T03:29:23.394Z,13.20
2018-09-03T03:31:54.409Z,13.03
2018-09-03T03:34:25.420Z,14.15
2018-09-03T03:36:56.514Z,12.00
2018-09-03T03:39:27.397Z,13.98
2018-09-03T03:41:58.611Z,13.62
2018-09-03T03:44:29.468Z,15.83
2018-09-03T03:47:01.410Z,14.07
2018-09-03T03:49:32.502Z,11.70
2018-09-03T03:52:03.553Z,16.95
2018-09-03T03:54:34.465Z,12.68
2018-09-03T03:57:05.677Z,12.78
2018-09-03T03:59:36.465Z,15.15
2018-09-03T04:02:07.638Z,15.80
2018-09-03T04:04:38.502Z,14.80
2018-09-03T04:07:09.488Z,14.63
2018-09-03T04:09:40.650Z,15.18
2018-09-03T04:12:11.478Z,14.95
2018-09-03T04:14:42.518Z,11.78
2018-09-03T04:17:13.474Z,13.60
2018-09-03T04:19:48.281Z,14.47
2018-09-03T04:22:19.345Z,13.43
2018-09-03T04:24:50.350Z,13.83
2018-09-03T04:27:21.378Z,13.05
2018-09-03T04:29:52.444Z,13.18
2018-09-03T04:32:23.847Z,13.85
2018-09-03T04:34:54.541Z,15.10
2018-09-03T04:37:25.442Z,13.68
2018-09-03T04:39:56.570Z,16.37
2018-09-03T04:42:27.481Z,12.80
2018-09-03T04:44:58.460Z,15.53
2018-09-03T04:47:29.435Z,16.45
2018-09-03T04:50:00.463Z,13.03
2018-09-03T04:52:31.475Z,10.08
2018-09-03T04:55:02.548Z,13.95
2018-09-03T04:57:33.468Z,13.65
2018-09-03T05:00:05.225Z,14.15
2018-09-03T05:02:36.350Z,13.93
2018-09-03T05:05:07.391Z,13.38
2018-09-03T05:07:38.376Z,13.25
2018-09-03T05:10:09.446Z,14.28
2018-09-03T05:12:40.261Z,17.35
2018-09-03T05:15:11.343Z,11.20
2018-09-03T05:17:42.442Z,13.95
2018-09-03T05:20:13.481Z,14.68
2018-09-03T05:22:44.428Z,14.18
2018-09-03T05:25:15.530Z,14.93
2018-09-03T05:27:46.437Z,14.53
2018-09-03T05:30:17.521Z,17.02
2018-09-03T05:32:48.459Z,16.70
2018-09-03T05:35:19.535Z,12.82
2018-09-03T05:37:50.486Z,16.48
2018-09-03T05:40:21.437Z,16.67
2018-09-03T05:42:52.507Z,16.70
2018-09-03T05:45:23.465Z,17.40
2018-09-03T05:47:54.598Z,12.70
2018-09-03T05:50:25.562Z,19.73
2018-09-03T05:52:56.431Z,19.67
2018-09-03T05:55:27.471Z,19.12
2018-09-03T05:57:58.455Z,14.68
2018-09-03T06:00:29.432Z,20.08
2018-09-03T06:03:00.434Z,21.95
2018-09-03T06:05:31.468Z,23.57
2018-09-03T06:08:02.536Z,20.40
2018-09-03T06:10:33.440Z,14.10
2018-09-03T06:13:04.457Z,21.40
2018-09-03T06:15:35.443Z,18.62
2018-09-03T06:18:06.586Z,23.92
2018-09-03T06:20:37.492Z,19.50
2018-09-03T06:23:08.498Z,14.13
2018-09-03T06:25:39.437Z,20.65
2018-09-03T06:28:10.614Z,19.48
2018-09-03T06:30:41.470Z,18.98
2018-09-03T06:33:12.451Z,22.62
2018-09-03T06:35:43.509Z,20.62
2018-09-03T06:38:14.473Z,20.20
2018-09-03T06:40:45.506Z,14.20
2018-09-03T06:46:02.465Z,19.13
2018-09-03T06:48:33.438Z,19.10
2018-09-03T06:51:04.478Z,20.50
2018-09-03T06:53:35.636Z,18.95
2018-09-03T06:56:06.706Z,21.07
2018-09-03T06:58:37.553Z,18.50
2018-09-03T07:01:08.793Z,19.82
2018-09-03T07:03:40.000Z,20.75
2018-09-03T07:06:11.345Z,21.87
2018-09-03T07:08:42.442Z,14.33
2018-09-03T07:11:13.411Z,22.13
2018-09-03T07:13:44.450Z,20.48
2018-09-03T07:16:15.484Z,19.90
2018-09-03T07:18:46.538Z,23.30
2018-09-03T07:21:17.421Z,21.95
2018-09-03T07:23:48.504Z,21.60
2018-09-03T07:26:19.496Z,26.42
2018-09-03T07:28:50.419Z,17.95
2018-09-03T07:31:21.982Z,19.92
2018-09-03T07:33:53.213Z,23.18
2018-09-03T07:36:24.289Z,14.93
2018-09-03T07:38:55.371Z,24.18
2018-09-03T07:41:26.389Z,19.27
2018-09-03T07:43:57.456Z,20.92
2018-09-03T07:46:28.453Z,23.77
2018-09-03T07:48:59.452Z,21.00
2018-09-03T07:51:30.437Z,22.05
2018-09-03T07:54:01.450Z,22.00
2018-09-03T07:56:32.497Z,23.40
2018-09-03T07:59:03.468Z,21.25
2018-09-03T08:01:34.508Z,22.35
2018-09-03T08:04:05.477Z,22.42
2018-09-03T08:06:36.487Z,21.05
2018-09-03T08:09:11.290Z,24.92
2018-09-03T08:11:42.340Z,20.55
2018-09-03T08:14:13.351Z,18.30
2018-09-03T08:16:44.403Z,23.75
2018-09-03T08:19:15.434Z,22.42
2018-09-03T08:21:46.424Z,22.20
2018-09-03T08:24:17.481Z,18.45
2018-09-03T08:26:48.442Z,24.27
2018-09-03T08:29:19.645Z,28.10
2018-09-03T08:31:50.473Z,19.82
2018-09-03T08:34:21.476Z,28.10
2018-09-03T08:36:52.433Z,21.77
2018-09-03T08:39:24.505Z,29.07
2018-09-03T08:41:55.460Z,29.50
2018-09-03T08:44:26.442Z,21.73
2018-09-03T08:46:57.448Z,27.40
2018-09-03T08:49:28.442Z,28.83
2018-09-03T08:51:59.405Z,28.30
2018-09-03T08:54:30.454Z,23.47
2018-09-03T08:57:01.405Z,25.48
2018-09-03T08:59:32.418Z,28.30
2018-09-03T09:02:03.404Z,17.32
2018-09-03T09:04:34.457Z,27.73
2018-09-03T09:07:05.546Z,17.98
2018-09-03T09:09:36.423Z,24.10
2018-09-03T09:12:07.472Z,25.95
2018-09-03T09:14:38.472Z,27.58
2018-09-03T09:17:09.429Z,20.85
2018-09-03T09:19:40.432Z,23.62
2018-09-03T09:22:11.421Z,24.60
2018-09-03T09:24:42.456Z,17.23
2018-09-03T09:27:13.533Z,25.72
2018-09-03T09:29:44.473Z,17.60
2018-09-03T09:32:15.422Z,21.57
2018-09-03T09:34:46.425Z,18.60
2018-09-03T09:37:17.509Z,19.57
2018-09-03T09:39:48.492Z,15.65
2018-09-03T09:42:19.457Z,25.88
2018-09-03T09:44:50.482Z,14.33
2018-09-03T09:47:21.441Z,21.37
2018-09-03T09:49:53.340Z,13.68
2018-09-03T09:52:24.350Z,20.70
2018-09-03T09:54:55.378Z,14.87
2018-09-03T09:57:26.369Z,19.77
2018-09-03T09:59:57.406Z,14.70
2018-09-03T10:02:28.857Z,17.48
2018-09-03T10:04:59.633Z,13.03
2018-09-03T10:07:30.493Z,18.92
2018-09-03T10:10:01.424Z,16.15
2018-09-03T10:12:33.401Z,18.42
2018-09-03T10:15:04.450Z,13.95
2018-09-03T10:17:35.485Z,20.08
2018-09-03T10:20:07.378Z,12.98
2018-09-03T10:22:38.392Z,14.18
2018-09-03T10:25:09.429Z,18.10
2018-09-03T10:27:40.435Z,12.50
2018-09-03T10:30:11.469Z,12.98
2018-09-03T10:32:42.446Z,17.77
2018-09-03T10:35:13.404Z,14.58
2018-09-03T10:37:44.429Z,16.87
2018-09-03T10:40:15.525Z,14.70
2018-09-03T10:42:46.450Z,18.62
2018-09-03T10:45:17.475Z,14.53
2018-09-03T10:47:48.457Z,19.45
2018-09-03T10:50:19.446Z,12.28
2018-09-03T10:52:50.465Z,17.73
2018-09-03T10:55:21.467Z,15.03
2018-09-03T10:57:52.384Z,14.78
2018-09-03T11:00:23.400Z,19.30
2018-09-03T11:02:54.428Z,14.53
2018-09-03T11:05:25.475Z,13.43
2018-09-03T11:07:56.437Z,19.80
2018-09-03T11:10:27.435Z,13.60
2018-09-03T11:12:58.514Z,20.08
2018-09-03T11:15:29.458Z,14.73
2018-09-03T11:18:00.461Z,19.27
2018-09-03T11:20:31.589Z,14.03
2018-09-03T11:23:02.513Z,16.00
2018-09-03T11:25:34.462Z,14.05
2018-09-03T11:28:05.468Z,18.32
2018-09-03T11:30:36.493Z,15.38
2018-09-03T11:33:07.453Z,16.97
2018-09-03T11:35:38.477Z,17.15
2018-09-03T11:38:09.451Z,19.73
2018-09-03T11:40:40.506Z,23.07
2018-09-03T11:43:11.414Z,23.25
2018-09-03T11:45:51.080Z,26.42
2018-09-03T11:48:26.019Z,17.60
2018-09-03T11:50:59.231Z,22.45
2018-09-03T11:53:32.508Z,22.98
2018-09-03T11:56:05.070Z,17.30
2018-09-03T11:58:36.871Z,23.02
2018-09-03T12:01:14.761Z,16.57
2018-09-03T12:03:50.275Z,24.05
2018-09-03T12:08:59.549Z,21.62
2018-09-03T12:11:35.288Z,15.70
2018-09-03T12:14:16.234Z,24.18
2018-09-03T12:19:35.715Z,23.40
2018-09-03T12:22:14.551Z,15.78
2018-09-03T12:24:48.317Z,23.18
2018-09-03T12:27:20.496Z,15.08
2018-09-03T12:29:55.350Z,22.07
2018-09-03T12:32:27.407Z,16.87
2018-09-03T12:34:58.466Z,17.45
2018-09-03T12:37:30.392Z,21.70
2018-09-03T12:40:02.337Z,16.12
2018-09-03T12:42:39.980Z,14.58
2018-09-03T12:45:19.815Z,23.07
2018-09-03T12:48:00.504Z,16.85
2018-09-03T12:50:37.985Z,21.20
2018-09-03T12:53:10.325Z,17.15
2018-09-03T12:55:44.062Z,15.72
2018-09-03T12:58:25.534Z,24.02
2018-09-03T13:01:00.739Z,17.73
2018-09-03T13:03:39.836Z,24.98
2018-09-03T13:06:15.010Z,17.50
2018-09-03T13:08:51.243Z,26.02
2018-09-03T13:14:21.258Z,21.80
2018-09-03T13:24:45.755Z,24.10
2018-09-03T13:27:19.395Z,17.15
2018-09-03T13:29:51.800Z,21.93
2018-09-03T13:32:26.205Z,15.78
2018-09-03T13:35:00.524Z,20.20
2018-09-03T13:37:33.067Z,19.98
2018-09-03T13:40:07.521Z,26.00
2018-09-03T13:42:38.922Z,20.72
2018-09-03T13:45:09.906Z,22.02
2018-09-03T13:47:41.630Z,15.50
2018-09-03T13:50:12.501Z,21.85
2018-09-03T13:52:43.433Z,14.25
2018-09-03T13:55:15.022Z,14.95
2018-09-03T13:57:46.289Z,26.45
2018-09-03T14:00:17.553Z,13.18
2018-09-03T14:02:48.511Z,14.38
2018-09-03T14:05:19.455Z,17.87
2018-09-03T14:07:50.451Z,14.78
2018-09-03T14:10:21.476Z,18.42
2018-09-03T14:12:52.619Z,12.28
2018-09-03T14:15:23.471Z,14.80
2018-09-03T14:17:54.428Z,13.15
2018-09-03T14:20:25.503Z,15.93
2018-09-03T14:22:56.589Z,13.48
2018-09-03T14:25:27.760Z,16.07
2018-09-03T14:27:58.797Z,15.75
2018-09-03T14:30:30.296Z,15.15
2018-09-03T14:33:01.358Z,12.60
2018-09-03T14:35:32.371Z,17.77
2018-09-03T14:38:03.371Z,11.03
2018-09-03T14:40:34.486Z,16.12
2018-09-03T14:43:05.525Z,13.38
2018-09-03T14:45:36.425Z,13.00
2018-09-03T14:48:07.458Z,11.28
2018-09-03T14:50:38.485Z,13.45
2018-09-03T14:53:09.454Z,12.50
2018-09-03T14:55:40.498Z,13.93
2018-09-03T14:58:15.258Z,11.08
2018-09-03T15:03:20.983Z,14.60
2018-09-03T15:05:52.595Z,16.00
2018-09-03T15:08:24.621Z,11.48
2018-09-03T15:10:57.294Z,15.85
2018-09-03T15:13:33.270Z,13.10
2018-09-03T15:18:44.472Z,11.57
2018-09-03T15:21:20.767Z,14.68
2018-09-03T15:23:55.067Z,10.00
2018-09-03T15:26:26.432Z,14.45
2018-09-03T15:28:57.443Z,11.30
2018-09-03T15:31:28.386Z,14.45
2018-09-03T15:33:59.466Z,12.82
2018-09-03T15:36:30.594Z,14.05
2018-09-03T15:39:01.471Z,13.85
2018-09-03T15:41:32.515Z,18.52
2018-09-03T15:44:03.481Z,12.20
2018-09-03T15:46:34.582Z,17.10
2018-09-03T15:49:05.564Z,12.30
2018-09-03T15:51:36.465Z,19.73
2018-09-03T15:54:07.472Z,11.00
2018-09-03T15:56:38.636Z,15.00
2018-09-03T15:59:09.489Z,14.50
2018-09-03T16:04:24.683Z,10.47
2018-09-03T16:06:55.582Z,16.02
2018-09-03T16:09:41.315Z,12.93
2018-09-03T16:12:20.298Z,16.87
2018-09-03T16:14:53.784Z,11.40
2018-09-03T16:17:29.277Z,16.95
2018-09-03T16:20:02.748Z,11.30
2018-09-03T16:24:53.352Z,12.65
2018-09-03T16:27:24.462Z,11.48
2018-09-03T16:29:55.503Z,15.23
2018-09-03T16:32:26.425Z,11.80
2018-09-03T16:34:57.477Z,11.05
2018-09-03T16:37:28.453Z,13.75
2018-09-03T16:39:59.487Z,11.05
2018-09-03T16:42:30.444Z,11.70
2018-09-03T16:45:01.391Z,12.37
2018-09-03T16:48:18.500Z,10.60
2018-09-03T16:50:49.519Z,14.55
2018-09-03T16:53:20.477Z,12.53
2018-09-03T16:55:51.445Z,10.25
2018-09-03T16:58:22.501Z,12.93
2018-09-03T17:00:53.528Z,8.85
2018-09-03T17:03:24.619Z,11.65
2018-09-03T17:05:55.563Z,8.70
2018-09-03T17:08:26.695Z,11.35
2018-09-03T17:10:57.603Z,8.85
2018-09-03T17:13:28.528Z,11.68
2018-09-03T17:15:59.457Z,67.15
2018-09-03T17:18:30.513Z,10.30
2018-09-03T17:21:07.300Z,9.45
2018-09-03T17:23:38.317Z,12.20
2018-09-03T17:26:19.641Z,12.63
2018-09-03T17:28:55.343Z,13.10
2018-09-03T17:31:27.214Z,10.55
2018-09-03T17:33:58.452Z,10.95
2018-09-03T17:36:29.606Z,16.90
2018-09-03T17:39:00.580Z,12.40
2018-09-03T17:41:31.520Z,23.13
2018-09-03T17:44:02.494Z,14.68
2018-09-03T17:46:33.697Z,13.78
2018-09-03T17:49:04.664Z,14.28
2018-09-03T17:51:35.802Z,16.70
2018-09-03T17:54:06.693Z,18.02
2018-09-03T17:56:40.241Z,11.20
2018-09-03T17:59:11.362Z,14.30
2018-09-03T18:01:42.373Z,9.83
2018-09-03T18:04:13.413Z,17.05
2018-09-03T18:06:44.492Z,13.35
2018-09-03T18:09:15.430Z,19.30
2018-09-03T18:11:46.587Z,12.23
2018-09-03T18:14:17.452Z,15.32
2018-09-03T18:16:48.441Z,15.38
2018-09-03T18:19:19.401Z,14.03
2018-09-03T18:21:50.499Z,12.88
2018-09-03T18:24:21.443Z,16.32
2018-09-03T18:26:52.372Z,10.00
2018-09-03T18:29:23.376Z,18.07
2018-09-03T18:31:54.417Z,12.82
2018-09-03T18:34:25.406Z,16.40
2018-09-03T18:36:56.426Z,13.50
2018-09-03T18:39:27.389Z,13.28
2018-09-03T18:41:58.762Z,11.20
2018-09-03T18:44:29.513Z,14.43
2018-09-03T18:47:00.408Z,9.73
2018-09-03T18:49:31.402Z,15.55
2018-09-03T18:52:02.445Z,13.10
2018-09-03T18:54:33.413Z,14.78
2018-09-03T18:57:04.398Z,11.03
2018-09-03T18:59:35.390Z,18.23
2018-09-03T19:02:06.497Z,13.90
2018-09-03T19:04:37.511Z,15.58
2018-09-03T19:07:08.535Z,13.25
2018-09-03T19:09:39.526Z,11.57
2018-09-03T19:12:11.326Z,15.53
2018-09-03T19:14:42.371Z,11.85
2018-09-03T19:17:13.450Z,17.05
2018-09-03T19:19:44.506Z,12.43
2018-09-03T19:22:15.511Z,17.77
2018-09-03T19:24:46.408Z,13.40
2018-09-03T19:27:17.506Z,19.42
2018-09-03T19:29:48.776Z,19.75
2018-09-03T19:32:19.525Z,15.28
2018-09-03T19:34:50.470Z,20.90
2018-09-03T19:37:21.486Z,15.72
2018-09-03T19:39:52.467Z,21.05
2018-09-03T19:42:23.438Z,22.20
2018-09-03T19:44:54.499Z,21.73
2018-09-03T19:47:25.418Z,15.60
2018-09-03T19:49:56.422Z,33.88
2018-09-03T19:52:27.437Z,26.48
2018-09-03T19:54:58.445Z,23.47
2018-09-03T19:57:29.468Z,17.95
2018-09-03T20:00:00.535Z,25.90
2018-09-03T20:02:31.519Z,24.10
2018-09-03T20:05:02.473Z,19.70
2018-09-03T20:07:33.480Z,23.45
2018-09-03T20:10:04.723Z,23.42
2018-09-03T20:12:35.593Z,23.10
2018-09-03T20:15:08.514Z,19.35
2018-09-03T20:17:39.471Z,24.90
2018-09-03T20:20:10.552Z,19.35
2018-09-03T20:22:41.512Z,24.67
2018-09-03T20:25:12.497Z,24.32
2018-09-03T20:27:43.517Z,26.35
2018-09-03T20:30:14.532Z,27.02
2018-09-03T20:32:45.538Z,27.70
2018-09-03T20:35:16.480Z,28.32
2018-09-03T20:37:47.473Z,21.12
2018-09-03T20:40:18.461Z,28.67
2018-09-03T20:42:49.464Z,29.80
2018-09-03T20:45:20.475Z,21.02
2018-09-03T20:47:51.518Z,29.40
2018-09-03T20:50:22.466Z,20.55
2018-09-03T20:52:53.433Z,27.37
2018-09-03T20:55:24.445Z,22.87
2018-09-03T20:57:55.419Z,30.45
2018-09-03T21:00:26.405Z,35.55
2018-09-03T21:02:57.485Z,33.60
2018-09-03T21:05:28.437Z,31.50
2018-09-03T21:08:00.201Z,25.85
2018-09-03T21:10:31.281Z,31.17
2018-09-03T21:13:02.398Z,28.50
2018-09-03T21:15:33.420Z,33.08
2018-09-03T21:18:52.627Z,34.07
2018-09-03T21:21:23.531Z,38.08
2018-09-03T21:23:54.469Z,28.15
2018-09-03T21:26:25.381Z,43.83
2018-09-03T21:28:56.430Z,36.38
2018-09-03T21:31:27.427Z,27.07
2018-09-03T21:33:58.422Z,40.10
2018-09-03T21:36:29.468Z,27.73
2018-09-03T21:39:00.449Z,36.10
2018-09-03T21:41:31.665Z,40.03
2018-09-03T21:44:02.785Z,30.25
2018-09-03T21:46:33.681Z,38.38
2018-09-03T21:49:04.542Z,36.65
2018-09-03T21:51:35.457Z,28.23
2018-09-03T21:54:06.533Z,38.42
2018-09-03T21:56:37.453Z,39.42
2018-09-03T21:59:08.444Z,40.98
2018-09-03T22:01:39.501Z,35.75
2018-09-03T22:04:10.437Z,37.98
2018-09-03T22:06:41.442Z,30.95
2018-09-03T22:09:12.438Z,41.70
2018-09-03T22:11:43.447Z,40.12
2018-09-03T22:14:14.430Z,47.73
2018-09-03T22:16:45.500Z,44.15
2018-09-03T22:19:16.395Z,38.40
2018-09-03T22:21:47.449Z,39.27
2018-09-03T22:24:18.489Z,39.85
2018-09-03T22:26:49.498Z,38.90
2018-09-03T22:29:20.425Z,35.28
2018-09-03T22:31:51.433Z,43.40
2018-09-03T22:34:22.474Z,41.10
2018-09-03T22:36:53.654Z,39.58
2018-09-03T22:39:24.481Z,38.20
2018-09-03T22:41:55.444Z,42.45
2018-09-03T22:44:26.467Z,42.62
2018-09-03T22:46:57.601Z,43.20
2018-09-03T22:49:29.204Z,41.45
2018-09-03T22:52:00.356Z,39.10
2018-09-03T22:54:31.562Z,43.25
2018-09-03T22:57:02.492Z,36.10
2018-09-03T22:59:33.489Z,39.98
2018-09-03T23:02:04.505Z,41.10
2018-09-03T23:04:35.442Z,42.35
2018-09-03T23:07:06.487Z,37.75
2018-09-03T23:09:37.475Z,31.02
2018-09-03T23:12:08.473Z,41.80
2018-09-03T23:14:39.464Z,31.75
2018-09-03T23:17:10.457Z,41.23
2018-09-03T23:19:41.441Z,44.18
2018-09-03T23:22:12.449Z,31.75
2018-09-03T23:24:43.446Z,40.10
2018-09-03T23:27:14.434Z,41.90
2018-09-03T23:29:45.441Z,40.63
2018-09-03T23:32:16.405Z,42.43
2018-09-03T23:34:47.368Z,47.83
2018-09-03T23:37:18.366Z,43.90
2018-09-03T23:39:49.450Z,44.65
2018-09-03T23:42:20.528Z,44.50
2018-09-03T23:44:51.496Z,33.00
2018-09-03T23:47:22.534Z,48.15
2018-09-03T23:49:53.546Z,43.23
2018-09-03T23:52:24.554Z,32.80
2018-09-03T23:54:55.541Z,43.33
2018-09-03T23:57:26.514Z,34.03
2018-09-03T23:59:57.673Z,44.10
